To NAV CANADA Home Page Login to a new session Search on AWWS site Disclaimer Vers la page française équivalente Tips FAQ What's new on the site To the Forecasts and Observations / NOTAM section To "File a Flight Plan" website Publications and other links Update of the User's profile FIC Telephone Numbers My Weather Data Folder Route Weather Data Regional Weather Data Local Weather Data To the Forecasts and Observations / NOTAM section
Request Generated 10/19/2018 at 16:29:15 UTC . Weather information available at that time is displayed.

METAR/TAF

STEPHENVILLE/NL    

METAR CYJT 191600Z 07005KT 060V150 12SM BKN020 06/03 A2969 RMK SC7 SLP058=
METAR CYJT 191500Z 07010KT 15SM SCT020 BKN025 05/03 A2967 RMK SF4SC3 SLP051=
SPECI CYJT 191411Z 07007KT 12SM FEW015 BKN020 05/03 A2965 RMK SF2SC5 SLP042=
METAR CYJT 191400Z 06011KT 12SM -SHRA FEW014 BKN020 04/03 A2964 RMK SF2SC5 SLP041=

TAF CYJT 191138Z 1912/2012 28012G22KT 5SM -RA BR FEW004 SCT012 OVC020
TEMPO 1912/1924 P6SM -RA SCT020 BKN025
FM200000 26012KT P6SM BKN025
BECMG 2004/2006 23010G20KT
FM201000 17015G25KT P6SM -RA OVC020
RMK NXT FCST BY 191800Z=
Your time UTC time
Weather data provided by Environment Canada and NAV CANADA